createdAt,value
2019-05-18T00:00:39.054Z,12.03
2019-05-18T00:03:14.142Z,12.03
2019-05-18T00:05:49.234Z,11.91
2019-05-18T00:08:24.368Z,11.87
2019-05-18T00:10:59.396Z,11.87
2019-05-18T00:13:34.617Z,11.79
2019-05-18T00:16:09.590Z,11.76
2019-05-18T00:18:44.667Z,11.70
2019-05-18T00:21:20.000Z,11.64
2019-05-18T00:23:55.093Z,11.72
2019-05-18T00:26:30.071Z,11.59
2019-05-18T00:29:07.940Z,11.57
2019-05-18T00:31:43.028Z,11.49
2019-05-18T00:34:18.191Z,11.44
2019-05-18T00:36:53.520Z,11.42
2019-05-18T00:39:28.702Z,11.43
2019-05-18T00:42:03.786Z,11.32
2019-05-18T00:44:38.805Z,11.27
2019-05-18T00:47:13.879Z,11.26
2019-05-18T00:49:49.201Z,11.15
2019-05-18T00:52:24.280Z,11.03
2019-05-18T00:54:59.405Z,11.09
2019-05-18T00:57:34.505Z,11.04
2019-05-18T01:00:10.305Z,10.99
2019-05-18T01:02:47.904Z,11.00
2019-05-18T01:05:22.940Z,11.01
2019-05-18T01:07:57.937Z,11.05
2019-05-18T01:10:33.782Z,10.95
2019-05-18T01:13:08.799Z,10.99
2019-05-18T01:15:43.821Z,10.92
2019-05-18T01:18:18.921Z,10.90
2019-05-18T01:20:54.232Z,10.94
2019-05-18T01:23:29.492Z,10.84
2019-05-18T01:26:04.718Z,10.84
2019-05-18T01:28:39.818Z,10.93
2019-05-18T01:31:14.900Z,10.97
2019-05-18T01:33:49.898Z,10.95
2019-05-18T01:36:25.023Z,10.89
2019-05-18T01:39:00.018Z,11.00
2019-05-18T01:41:35.462Z,10.95
2019-05-18T01:44:10.467Z,10.93
2019-05-18T01:46:45.464Z,10.84
2019-05-18T01:49:20.574Z,10.83
2019-05-18T01:51:55.569Z,10.96
2019-05-18T01:54:30.706Z,10.94
2019-05-18T01:57:05.909Z,11.04
2019-05-18T01:59:40.891Z,11.02
2019-05-18T02:02:15.914Z,11.04
2019-05-18T02:04:50.935Z,11.05
2019-05-18T02:07:26.063Z,11.06
2019-05-18T02:10:01.186Z,11.08
2019-05-18T02:12:36.203Z,11.17
2019-05-18T02:15:12.342Z,11.17
2019-05-18T02:17:47.540Z,11.21
2019-05-18T02:20:22.656Z,11.26
2019-05-18T02:22:57.751Z,11.26
2019-05-18T02:25:32.844Z,11.33
2019-05-18T02:28:07.818Z,11.31
2019-05-18T02:30:42.896Z,11.36
2019-05-18T02:33:17.952Z,11.27
2019-05-18T02:35:53.047Z,11.28
2019-05-18T02:38:28.057Z,11.38
2019-05-18T02:41:03.361Z,11.36
2019-05-18T02:43:38.418Z,11.35
2019-05-18T02:46:13.445Z,11.22
2019-05-18T02:48:50.687Z,11.25
2019-05-18T02:51:25.256Z,11.24
2019-05-18T02:54:00.360Z,11.36
2019-05-18T02:56:35.494Z,11.37
2019-05-18T02:59:10.477Z,11.40
2019-05-18T03:01:45.533Z,11.43
2019-05-18T03:04:20.561Z,11.47
2019-05-18T03:06:55.743Z,11.69
2019-05-18T03:09:30.737Z,11.79
2019-05-18T03:12:05.890Z,11.81
2019-05-18T03:14:40.873Z,11.91
2019-05-18T03:17:15.892Z,11.89
2019-05-18T03:19:50.974Z,11.88
2019-05-18T03:22:26.037Z,11.92
2019-05-18T03:25:01.037Z,11.95
2019-05-18T03:27:36.182Z,11.99
2019-05-18T03:30:12.709Z,11.89
2019-05-18T03:32:47.830Z,11.89
2019-05-18T03:35:22.826Z,11.98
2019-05-18T03:37:57.838Z,11.93
2019-05-18T03:40:33.142Z,11.92
2019-05-18T03:43:08.151Z,11.89
2019-05-18T03:45:43.257Z,11.91
2019-05-18T03:48:18.293Z,11.89
2019-05-18T03:50:53.332Z,11.95
2019-05-18T03:53:28.345Z,12.04
2019-05-18T03:56:04.331Z,12.07
2019-05-18T03:58:39.465Z,12.12
2019-05-18T04:01:14.590Z,12.15
2019-05-18T04:03:49.611Z,12.20
2019-05-18T04:06:25.653Z,12.34
2019-05-18T04:09:00.673Z,12.39
2019-05-18T04:11:37.164Z,12.46
2019-05-18T04:14:12.431Z,12.57
2019-05-18T04:16:47.425Z,12.60
2019-05-18T04:19:22.562Z,12.65
2019-05-18T04:21:57.684Z,12.71
2019-05-18T04:24:33.008Z,12.92
2019-05-18T04:27:08.003Z,12.98
2019-05-18T04:29:43.314Z,13.12
2019-05-18T04:32:18.315Z,13.22
2019-05-18T04:34:53.450Z,13.30
2019-05-18T04:37:28.555Z,13.29
2019-05-18T04:40:03.723Z,13.39
2019-05-18T04:42:38.860Z,13.45
2019-05-18T04:45:14.112Z,13.56
2019-05-18T04:47:51.374Z,13.63
2019-05-18T04:50:27.168Z,13.83
2019-05-18T04:53:02.290Z,14.09
2019-05-18T04:55:37.623Z,14.03
2019-05-18T04:58:12.647Z,14.24
2019-05-18T05:00:47.843Z,14.31
2019-05-18T05:03:22.946Z,14.39
2019-05-18T05:05:57.949Z,14.50
2019-05-18T05:08:33.168Z,14.69
2019-05-18T05:11:08.180Z,14.79
2019-05-18T05:13:43.889Z,14.82
2019-05-18T05:16:20.040Z,14.89
2019-05-18T05:18:55.214Z,15.11
2019-05-18T05:21:30.783Z,15.21
2019-05-18T05:24:06.326Z,15.36
2019-05-18T05:26:41.465Z,15.41
2019-05-18T05:29:16.578Z,15.42
2019-05-18T05:31:51.613Z,15.48
2019-05-18T05:34:26.610Z,15.44
2019-05-18T05:37:01.739Z,15.49
2019-05-18T05:39:36.740Z,15.52
2019-05-18T05:42:11.931Z,15.43
2019-05-18T05:44:46.997Z,15.23
2019-05-18T05:47:21.994Z,15.17
2019-05-18T05:49:57.029Z,15.23
2019-05-18T05:52:32.013Z,15.28
2019-05-18T05:55:07.762Z,15.16
2019-05-18T05:57:42.865Z,15.35
2019-05-18T06:00:18.120Z,15.40
2019-05-18T06:02:53.415Z,15.34
2019-05-18T06:05:30.353Z,15.36
2019-05-18T06:08:06.429Z,15.38
2019-05-18T06:10:41.556Z,15.46
2019-05-18T06:13:16.533Z,15.60
2019-05-18T06:15:51.615Z,15.61
2019-05-18T06:18:26.870Z,15.67
2019-05-18T06:21:02.010Z,15.89
2019-05-18T06:23:37.353Z,15.90
2019-05-18T06:26:12.449Z,16.06
2019-05-18T06:28:47.519Z,16.13
2019-05-18T06:31:23.283Z,16.10
2019-05-18T06:33:58.468Z,16.12
2019-05-18T06:36:33.823Z,16.16
2019-05-18T06:39:09.855Z,16.27
2019-05-18T06:41:44.999Z,16.40
2019-05-18T06:44:20.162Z,16.49
2019-05-18T06:46:55.199Z,16.48
2019-05-18T06:49:30.344Z,16.72
2019-05-18T06:52:05.638Z,16.61
2019-05-18T06:54:40.718Z,16.63
2019-05-18T06:57:17.388Z,16.67
2019-05-18T06:59:52.795Z,16.85
2019-05-18T07:02:27.878Z,16.87
2019-05-18T07:05:04.134Z,16.78
2019-05-18T07:07:39.561Z,17.07
2019-05-18T07:10:15.377Z,17.04
2019-05-18T07:12:50.542Z,17.15
2019-05-18T07:15:25.678Z,17.15
2019-05-18T07:18:00.767Z,17.25
2019-05-18T07:20:35.884Z,17.33
2019-05-18T07:23:11.103Z,17.28
2019-05-18T07:25:46.184Z,17.36
2019-05-18T07:28:21.320Z,17.40
2019-05-18T07:30:56.424Z,17.46
2019-05-18T07:33:31.765Z,17.52
2019-05-18T07:36:07.446Z,17.51
2019-05-18T07:38:42.571Z,17.70
2019-05-18T07:41:17.803Z,17.94
2019-05-18T07:43:53.341Z,18.08
2019-05-18T07:46:28.374Z,18.21
2019-05-18T07:49:04.661Z,18.24
2019-05-18T07:51:40.208Z,18.44
2019-05-18T07:54:15.384Z,18.62
2019-05-18T07:56:50.766Z,18.62
2019-05-18T07:59:26.104Z,18.69
2019-05-18T08:02:01.195Z,18.86
2019-05-18T08:04:39.687Z,18.78
2019-05-18T08:07:13.081Z,18.94
2019-05-18T08:09:48.190Z,19.05
2019-05-18T08:12:23.189Z,19.09
2019-05-18T08:14:58.371Z,19.16
2019-05-18T08:17:36.035Z,19.47
2019-05-18T08:20:11.765Z,19.52
2019-05-18T08:22:55.485Z,19.63
2019-05-18T08:25:30.650Z,19.64
2019-05-18T08:28:05.761Z,19.78
2019-05-18T08:30:41.037Z,19.70
2019-05-18T08:33:16.120Z,19.82
2019-05-18T08:35:51.265Z,19.83
2019-05-18T08:38:26.288Z,19.98
2019-05-18T08:41:01.453Z,20.07
2019-05-18T08:43:36.567Z,19.81
2019-05-18T08:46:11.733Z,19.93
2019-05-18T08:48:46.979Z,20.15
2019-05-18T08:51:22.479Z,20.22
2019-05-18T08:53:57.866Z,20.37
2019-05-18T08:56:33.260Z,20.44
2019-05-18T08:59:08.277Z,20.50
2019-05-18T09:01:43.947Z,20.46
2019-05-18T09:04:19.044Z,20.63
2019-05-18T09:06:54.079Z,20.65
2019-05-18T09:09:32.791Z,20.65
2019-05-18T09:12:07.841Z,20.70
2019-05-18T09:14:43.049Z,20.78
2019-05-18T09:17:18.070Z,21.06
2019-05-18T09:19:53.113Z,21.16
2019-05-18T09:22:28.261Z,21.18
2019-05-18T09:25:03.318Z,21.26
2019-05-18T09:27:38.597Z,21.46
2019-05-18T09:30:13.951Z,21.71
2019-05-18T09:32:49.251Z,21.64
2019-05-18T09:35:24.260Z,21.55
2019-05-18T09:38:00.249Z,21.70
2019-05-18T09:40:35.433Z,21.78
2019-05-18T09:43:11.616Z,21.78
2019-05-18T09:45:46.653Z,21.96
2019-05-18T09:48:22.438Z,22.12
2019-05-18T09:50:57.595Z,22.32
2019-05-18T09:53:33.407Z,22.36
2019-05-18T09:56:08.796Z,22.20
2019-05-18T09:58:44.961Z,22.15
2019-05-18T10:01:21.299Z,22.14
2019-05-18T10:03:57.333Z,22.41
2019-05-18T10:06:32.491Z,22.40
2019-05-18T10:09:10.836Z,22.60
2019-05-18T10:11:45.957Z,22.71
2019-05-18T10:14:21.062Z,22.88
2019-05-18T10:16:56.121Z,23.03
2019-05-18T10:19:31.349Z,23.10
2019-05-18T10:22:06.397Z,23.25
2019-05-18T10:24:41.476Z,23.37
2019-05-18T10:27:16.503Z,23.55
2019-05-18T10:29:51.587Z,23.58
2019-05-18T10:32:26.758Z,23.78
2019-05-18T10:35:01.829Z,23.94
2019-05-18T10:37:36.902Z,24.06
2019-05-18T10:40:14.678Z,24.05
2019-05-18T10:42:50.042Z,23.97
2019-05-18T10:45:26.545Z,23.82
2019-05-18T10:48:01.710Z,24.01
2019-05-18T10:50:36.780Z,24.47
2019-05-18T10:53:28.458Z,24.29
2019-05-18T10:55:53.775Z,23.91
2019-05-18T10:58:28.872Z,24.13
2019-05-18T11:01:04.384Z,24.73
2019-05-18T11:03:39.731Z,24.99
2019-05-18T11:06:15.005Z,24.96
2019-05-18T11:08:50.942Z,25.51
2019-05-18T11:11:26.066Z,25.87
2019-05-18T11:14:01.475Z,26.06
2019-05-18T11:16:36.496Z,26.05
2019-05-18T11:19:11.829Z,26.36
2019-05-18T11:21:46.834Z,26.92
2019-05-18T11:24:23.315Z,27.44
2019-05-18T11:26:58.338Z,27.71
2019-05-18T11:29:33.702Z,27.17
2019-05-18T11:32:09.931Z,27.59
2019-05-18T11:34:45.434Z,27.51
2019-05-18T11:37:20.488Z,26.29
2019-05-18T11:39:55.630Z,25.63
2019-05-18T11:42:30.618Z,26.75
2019-05-18T11:45:06.797Z,26.59
2019-05-18T11:47:41.931Z,27.33
2019-05-18T11:50:17.547Z,28.23
2019-05-18T11:52:52.803Z,28.80
2019-05-18T11:55:27.818Z,29.57
2019-05-18T11:58:02.809Z,29.16
2019-05-18T12:00:37.971Z,29.69
2019-05-18T12:03:12.996Z,29.80
2019-05-18T12:05:48.087Z,30.43
2019-05-18T12:08:24.141Z,30.06
2019-05-18T12:11:00.239Z,30.23
2019-05-18T12:13:35.205Z,30.48
2019-05-18T12:16:10.325Z,30.92
2019-05-18T12:18:45.432Z,30.57
2019-05-18T12:21:21.917Z,30.12
2019-05-18T12:23:57.130Z,30.94
2019-05-18T12:26:32.243Z,31.31
2019-05-18T12:29:07.273Z,31.62
2019-05-18T12:31:44.385Z,32.51
2019-05-18T12:34:21.351Z,32.89
2019-05-18T12:36:57.163Z,32.38
2019-05-18T12:39:32.279Z,32.01
2019-05-18T12:42:07.786Z,32.09
2019-05-18T12:44:42.974Z,32.28
2019-05-18T12:47:17.949Z,33.31
2019-05-18T12:49:53.078Z,33.34
2019-05-18T12:52:28.176Z,33.43
2019-05-18T12:55:03.336Z,33.51
2019-05-18T12:57:39.385Z,31.87
2019-05-18T13:00:16.640Z,31.25
2019-05-18T13:02:51.806Z,32.13
2019-05-18T13:05:26.917Z,32.88
2019-05-18T13:08:02.029Z,33.78
2019-05-18T13:10:37.408Z,34.20
2019-05-18T13:13:12.431Z,34.20
2019-05-18T13:15:47.655Z,33.16
2019-05-18T13:18:22.754Z,34.09
2019-05-18T13:20:57.886Z,34.55
2019-05-18T13:23:33.004Z,34.84
2019-05-18T13:26:08.134Z,35.08
2019-05-18T13:28:43.231Z,35.62
2019-05-18T13:31:18.332Z,35.74
2019-05-18T13:33:53.311Z,35.64
2019-05-18T13:36:28.522Z,35.97
2019-05-18T13:39:05.631Z,36.19
2019-05-18T13:41:41.472Z,36.25
2019-05-18T13:44:16.560Z,34.27
2019-05-18T13:46:51.742Z,31.54
2019-05-18T13:49:26.808Z,30.04
2019-05-18T13:52:01.829Z,28.99
2019-05-18T13:54:36.817Z,28.17
2019-05-18T13:57:11.845Z,28.80
2019-05-18T13:59:51.654Z,30.54
2019-05-18T14:02:26.776Z,32.76
2019-05-18T14:05:02.049Z,33.88
2019-05-18T14:07:37.243Z,35.33
2019-05-18T14:10:14.091Z,35.55
2019-05-18T14:12:49.308Z,35.89
2019-05-18T14:15:24.341Z,36.63
2019-05-18T14:17:59.484Z,36.89
2019-05-18T14:20:34.502Z,36.80
2019-05-18T14:23:10.659Z,36.09
2019-05-18T14:25:46.258Z,34.84
2019-05-18T14:28:21.587Z,33.33
2019-05-18T14:30:56.558Z,32.25
2019-05-18T14:33:32.631Z,31.37
2019-05-18T14:36:07.686Z,30.57
2019-05-18T14:38:42.696Z,29.74
2019-05-18T14:41:17.788Z,29.23
2019-05-18T14:43:52.765Z,28.57
2019-05-18T14:46:27.898Z,28.26
2019-05-18T14:49:02.891Z,28.07
2019-05-18T14:51:38.022Z,27.75
2019-05-18T14:54:12.994Z,27.49
2019-05-18T14:56:48.132Z,27.17
2019-05-18T14:59:23.096Z,27.31
2019-05-18T15:01:59.335Z,27.01
2019-05-18T15:04:34.334Z,27.09
2019-05-18T15:07:09.643Z,27.15
2019-05-18T15:09:44.679Z,27.13
2019-05-18T15:12:19.739Z,27.01
2019-05-18T15:14:54.812Z,27.01
2019-05-18T15:17:29.993Z,26.59
2019-05-18T15:20:05.456Z,26.54
2019-05-18T15:22:40.554Z,26.73
2019-05-18T15:25:16.306Z,26.37
2019-05-18T15:27:53.185Z,26.06
2019-05-18T15:30:28.433Z,26.21
2019-05-18T15:33:03.593Z,26.69
2019-05-18T15:35:38.725Z,27.19
2019-05-18T15:38:13.786Z,28.05
2019-05-18T15:40:49.674Z,28.07
2019-05-18T15:43:24.732Z,28.24
2019-05-18T15:45:59.682Z,27.61
2019-05-18T15:48:34.991Z,27.32
2019-05-18T15:51:10.191Z,27.19
2019-05-18T15:53:45.260Z,26.89
2019-05-18T15:56:20.368Z,26.64
2019-05-18T15:58:55.443Z,26.47
2019-05-18T16:01:30.530Z,26.24
2019-05-18T16:04:06.666Z,26.19
2019-05-18T16:06:41.808Z,26.13
2019-05-18T16:09:17.027Z,26.22
2019-05-18T16:11:52.040Z,26.15
2019-05-18T16:14:27.165Z,25.92
2019-05-18T16:17:02.288Z,25.76
2019-05-18T16:19:37.441Z,25.38
2019-05-18T16:22:12.452Z,25.00
2019-05-18T16:24:47.672Z,24.64
2019-05-18T16:27:22.699Z,24.91
2019-05-18T16:30:03.187Z,25.10
2019-05-18T16:32:38.250Z,25.30
2019-05-18T16:35:15.261Z,25.37
2019-05-18T16:37:50.297Z,25.33
2019-05-18T16:40:26.658Z,25.47
2019-05-18T16:43:01.648Z,25.74
2019-05-18T16:45:36.634Z,25.79
2019-05-18T16:48:11.638Z,25.82
2019-05-18T16:50:46.620Z,26.01
2019-05-18T16:53:21.737Z,26.06
2019-05-18T16:55:56.928Z,25.96
2019-05-18T16:58:31.911Z,25.78
2019-05-18T17:01:07.396Z,25.72
2019-05-18T17:03:42.634Z,25.86
2019-05-18T17:06:17.722Z,25.74
2019-05-18T17:08:54.072Z,25.74
2019-05-18T17:11:29.073Z,25.68
2019-05-18T17:14:04.674Z,25.65
2019-05-18T17:16:39.849Z,25.57
2019-05-18T17:19:15.029Z,25.50
2019-05-18T17:21:50.303Z,25.96
2019-05-18T17:24:25.405Z,25.85
2019-05-18T17:27:00.451Z,25.47
2019-05-18T17:29:35.721Z,24.70
2019-05-18T17:32:10.756Z,24.35
2019-05-18T17:34:45.846Z,24.01
2019-05-18T17:37:20.935Z,23.91
2019-05-18T17:39:56.085Z,23.87
2019-05-18T17:42:31.349Z,23.82
2019-05-18T17:45:07.277Z,23.77
2019-05-18T17:47:42.710Z,23.65
2019-05-18T17:50:20.576Z,23.73
2019-05-18T17:52:55.587Z,23.65
2019-05-18T17:55:30.707Z,23.63
2019-05-18T17:58:05.807Z,23.55
2019-05-18T18:00:41.809Z,23.64
2019-05-18T18:03:16.930Z,23.56
2019-05-18T18:05:52.738Z,23.68
2019-05-18T18:08:27.882Z,23.47
2019-05-18T18:11:03.301Z,23.39
2019-05-18T18:13:38.450Z,23.35
2019-05-18T18:16:13.765Z,23.08
2019-05-18T18:18:49.442Z,22.81
2019-05-18T18:21:27.026Z,22.67
2019-05-18T18:24:05.191Z,22.61
2019-05-18T18:29:13.603Z,22.44
2019-05-18T18:31:48.872Z,22.27
2019-05-18T18:34:24.083Z,22.12
2019-05-18T18:37:03.136Z,22.00
2019-05-18T18:39:41.143Z,21.85
2019-05-18T18:42:18.876Z,21.66
2019-05-18T18:44:54.344Z,21.60
2019-05-18T18:47:29.667Z,21.45
2019-05-18T18:50:06.572Z,21.47
2019-05-18T18:52:41.863Z,21.53
2019-05-18T18:55:17.009Z,21.46
2019-05-18T18:57:52.010Z,21.31
2019-05-18T19:00:27.411Z,21.13
2019-05-18T19:03:03.772Z,20.99
2019-05-18T19:05:39.114Z,20.93
2019-05-18T19:08:14.170Z,20.93
2019-05-18T19:10:51.626Z,20.82
2019-05-18T19:13:27.389Z,20.81
2019-05-18T19:16:03.265Z,20.63
2019-05-18T19:18:38.580Z,20.59
2019-05-18T19:21:13.915Z,20.43
2019-05-18T19:23:51.936Z,20.45
2019-05-18T19:26:28.196Z,20.36
2019-05-18T19:29:03.548Z,20.36
2019-05-18T19:31:38.841Z,20.21
2019-05-18T19:34:14.099Z,20.15
2019-05-18T19:36:49.748Z,20.11
2019-05-18T19:39:25.091Z,20.14
2019-05-18T19:42:00.511Z,20.01
2019-05-18T19:44:35.974Z,20.02
2019-05-18T19:47:11.532Z,19.93
2019-05-18T19:49:46.824Z,19.89
2019-05-18T19:52:22.130Z,19.81
2019-05-18T19:55:02.541Z,19.74
2019-05-18T19:57:39.291Z,19.63
2019-05-18T20:00:15.252Z,19.62
2019-05-18T20:02:50.761Z,19.53
2019-05-18T20:05:25.851Z,19.57
2019-05-18T20:08:01.052Z,19.49
2019-05-18T20:10:37.274Z,19.40
2019-05-18T20:13:12.459Z,19.33
2019-05-18T20:15:47.712Z,19.23
2019-05-18T20:18:22.848Z,19.17
2019-05-18T20:20:57.991Z,19.05
2019-05-18T20:23:33.758Z,18.99
2019-05-18T20:26:08.985Z,18.90
2019-05-18T20:28:44.411Z,18.84
2019-05-18T20:31:19.464Z,18.89
2019-05-18T20:33:54.632Z,18.84
2019-05-18T20:36:29.762Z,18.73
2019-05-18T20:39:06.047Z,18.68
2019-05-18T20:41:43.713Z,18.57
2019-05-18T20:44:20.605Z,18.47
2019-05-18T20:46:56.581Z,18.40
2019-05-18T20:49:31.705Z,18.46
2019-05-18T20:52:06.880Z,18.28
2019-05-18T20:54:41.876Z,18.33
2019-05-18T20:57:16.910Z,18.25
2019-05-18T20:59:52.192Z,18.30
2019-05-18T21:02:27.210Z,18.25
2019-05-18T21:05:02.300Z,18.25
2019-05-18T21:07:37.354Z,18.18
2019-05-18T21:10:12.938Z,18.11
2019-05-18T21:12:48.064Z,18.11
2019-05-18T21:15:23.141Z,18.08
2019-05-18T21:17:58.327Z,17.95
2019-05-18T21:20:34.376Z,17.86
2019-05-18T21:23:09.537Z,17.85
2019-05-18T21:25:44.553Z,17.80
2019-05-18T21:28:19.621Z,17.76
2019-05-18T21:30:55.685Z,17.77
2019-05-18T21:33:30.801Z,17.72
2019-05-18T21:36:05.838Z,17.70
2019-05-18T21:38:40.846Z,17.55
2019-05-18T21:41:16.017Z,17.52
2019-05-18T21:43:51.148Z,17.42
2019-05-18T21:46:26.157Z,17.33
2019-05-18T21:49:01.410Z,17.31
2019-05-18T21:51:36.493Z,17.30
2019-05-18T21:54:11.607Z,17.31
2019-05-18T21:56:48.029Z,17.35
2019-05-18T21:59:24.067Z,17.25
2019-05-18T22:01:59.185Z,17.19
2019-05-18T22:04:34.332Z,17.16
2019-05-18T22:07:09.377Z,17.09
2019-05-18T22:09:44.363Z,17.22
2019-05-18T22:12:19.495Z,17.15
2019-05-18T22:14:54.774Z,17.16
2019-05-18T22:17:29.956Z,17.21
2019-05-18T22:20:04.988Z,17.14
2019-05-18T22:22:40.051Z,17.21
2019-05-18T22:25:15.584Z,17.21
2019-05-18T22:27:51.402Z,17.24
2019-05-18T22:30:26.561Z,17.28
2019-05-18T22:33:01.672Z,17.29
2019-05-18T22:35:36.744Z,17.24
2019-05-18T22:38:11.867Z,17.16
2019-05-18T22:40:46.989Z,17.20
2019-05-18T22:43:21.997Z,17.18
2019-05-18T22:45:56.980Z,17.14
2019-05-18T22:48:40.998Z,17.07
2019-05-18T22:51:09.594Z,17.08
2019-05-18T22:53:46.547Z,17.07
2019-05-18T22:56:21.369Z,17.05
2019-05-18T22:58:56.485Z,17.06
2019-05-18T23:01:31.461Z,17.09
2019-05-18T23:04:06.466Z,17.14
2019-05-18T23:06:41.587Z,17.07
2019-05-18T23:09:16.769Z,17.09
2019-05-18T23:11:51.877Z,16.95
2019-05-18T23:14:27.964Z,16.96
2019-05-18T23:17:03.023Z,16.89
2019-05-18T23:19:38.127Z,16.94
2019-05-18T23:22:13.147Z,16.87
2019-05-18T23:24:49.106Z,16.83
2019-05-18T23:27:24.142Z,16.64
2019-05-18T23:29:59.610Z,16.64
2019-05-18T23:32:35.573Z,16.61
2019-05-18T23:35:11.148Z,16.41
2019-05-18T23:37:47.451Z,16.32
2019-05-18T23:40:22.547Z,16.19
2019-05-18T23:42:57.538Z,16.28
2019-05-18T23:45:32.642Z,16.17
2019-05-18T23:48:07.654Z,16.19
2019-05-18T23:50:42.628Z,16.04
2019-05-18T23:53:17.653Z,16.06
2019-05-18T23:55:53.443Z,16.06
2019-05-18T23:58:28.947Z,16.06
